CYBR

Brandon Municipal Airport

Brandon, Manitoba, Canada
METAR CYBR 191800Z 02004KT 340V070 15SM FEW020 BKN110 11/01 A3020 RMK SC1AC6 SLP244
Observed Flight Rules
Sep-19 @ 18:00 UTC (47 minutes ago) Visual Flight Rules
Wind Visibility Clouds
20° at 4 knots 15 miles
  • Few at 2,000' AGL
  • Broken at 11,000' AGL
Temperatures Readings
Current 11°C / 52°F
Dewpoint 1°C / 34°F
Humidity 50%
Altimeter 30.2" Hg
Pressure 1024.4 hPa
Elevation 409
METAR CYBR 191800Z 02004KT 340V070 15SM FEW020 BKN110 11/01 A3020 RMK SC1AC6 SLP244
Observed Flight Rules
Sep-19 @ 18:00 UTC
(47 minutes ago)
VFR
Wind Visibility
20° at 4 knots 15 miles
Clouds
  • Few at 2,000' AGL
  • Broken at 11,000' AGL
Temperature Dewpoint
11°C / 52°F 1°C / 34°F
Humidity Altimeter Pressure
50% 30.2" Hg 1024.4 hPa